createdAt,value
2023-04-10T00:01:10.726Z,9.85
2023-04-10T00:03:39.217Z,10.65
2023-04-10T00:06:07.627Z,11.23
2023-04-10T00:08:34.970Z,9.60
2023-04-10T00:11:02.234Z,9.43
2023-04-10T00:13:30.482Z,10.07
2023-04-10T00:15:58.451Z,10.32
2023-04-10T00:18:25.802Z,10.23
2023-04-10T00:20:53.844Z,10.02
2023-04-10T00:23:22.554Z,9.55
2023-04-10T00:25:50.275Z,10.07
2023-04-10T00:28:17.686Z,9.05
2023-04-10T00:30:45.882Z,9.52
2023-04-10T00:33:13.649Z,10.82
2023-04-10T00:35:41.017Z,9.85
2023-04-10T00:38:08.423Z,9.23
2023-04-10T00:40:35.890Z,9.45
2023-04-10T00:43:03.429Z,10.05
2023-04-10T00:45:31.209Z,10.10
2023-04-10T00:47:58.655Z,10.50
2023-04-10T00:50:27.229Z,10.60
2023-04-10T00:52:54.541Z,10.10
2023-04-10T00:55:23.881Z,9.85
2023-04-10T00:57:52.633Z,9.55
2023-04-10T01:00:20.988Z,9.75
2023-04-10T01:02:48.905Z,11.15
2023-04-10T01:05:17.923Z,9.82
2023-04-10T01:08:43.219Z,10.60
2023-04-10T01:11:24.915Z,10.25
2023-04-10T01:14:19.812Z,10.13
2023-04-10T01:17:07.389Z,9.55
2023-04-10T01:20:04.720Z,9.43
2023-04-10T01:23:45.815Z,10.60
2023-04-10T01:26:17.500Z,10.07
2023-04-10T01:29:10.705Z,9.60
2023-04-10T01:32:02.805Z,8.93
2023-04-10T01:34:54.457Z,10.30
2023-04-10T01:37:30.327Z,10.60
2023-04-10T01:40:10.467Z,11.32
2023-04-10T01:42:50.979Z,8.90
2023-04-10T01:45:27.785Z,9.85
2023-04-10T01:47:56.589Z,10.47
2023-04-10T01:50:27.959Z,11.02
2023-04-10T01:52:57.440Z,10.57
2023-04-10T01:55:27.925Z,10.73
2023-04-10T01:58:04.790Z,9.63
2023-04-10T02:00:41.715Z,9.77
2023-04-10T02:03:11.348Z,9.85
2023-04-10T02:06:16.317Z,10.90
2023-04-10T02:09:14.094Z,11.15
2023-04-10T02:12:11.445Z,10.30
2023-04-10T02:14:46.757Z,10.63
2023-04-10T02:17:28.587Z,11.23
2023-04-10T02:20:00.838Z,11.18
2023-04-10T02:22:29.113Z,10.88
2023-04-10T02:24:58.973Z,11.90
2023-04-10T02:27:36.282Z,11.43
2023-04-10T02:30:05.905Z,10.75
2023-04-10T02:32:35.793Z,11.40
2023-04-10T02:35:04.139Z,10.95
2023-04-10T02:37:32.862Z,9.90
2023-04-10T02:40:01.990Z,10.32
2023-04-10T02:42:37.091Z,10.27
2023-04-10T02:45:06.426Z,9.27
2023-04-10T02:47:38.861Z,11.70
2023-04-10T02:50:07.252Z,9.90
2023-04-10T02:52:37.633Z,9.52
2023-04-10T02:55:06.381Z,10.23
2023-04-10T02:57:37.022Z,10.75
2023-04-10T03:00:06.928Z,10.43
2023-04-10T03:02:55.494Z,8.93
2023-04-10T03:05:27.052Z,10.20
2023-04-10T03:07:54.416Z,9.25
2023-04-10T03:10:21.678Z,11.20
2023-04-10T03:12:50.456Z,9.27
2023-04-10T03:15:21.157Z,10.85
2023-04-10T03:17:50.010Z,10.50
2023-04-10T03:20:18.673Z,10.23
2023-04-10T03:22:45.916Z,10.73
2023-04-10T03:25:17.363Z,9.90
2023-04-10T03:27:47.181Z,9.73
2023-04-10T03:30:14.526Z,9.80
2023-04-10T03:32:43.436Z,10.57
2023-04-10T03:35:11.030Z,10.20
2023-04-10T03:37:39.367Z,10.25
2023-04-10T03:40:09.671Z,10.05
2023-04-10T03:42:37.101Z,9.32
2023-04-10T03:45:07.009Z,9.38
2023-04-10T03:47:35.249Z,10.38
2023-04-10T03:50:06.055Z,10.48
2023-04-10T03:52:41.322Z,9.73
2023-04-10T03:55:14.441Z,10.07
2023-04-10T03:57:42.436Z,9.85
2023-04-10T04:00:13.129Z,9.70
2023-04-10T04:02:54.125Z,10.07
2023-04-10T04:05:42.348Z,10.98
2023-04-10T04:08:28.398Z,10.00
2023-04-10T04:11:11.862Z,10.45
2023-04-10T04:13:59.275Z,10.00
2023-04-10T04:16:48.518Z,11.18
2023-04-10T04:19:39.028Z,9.52
2023-04-10T04:22:24.607Z,10.60
2023-04-10T04:25:11.792Z,10.27
2023-04-10T04:28:00.124Z,9.57
2023-04-10T04:30:46.396Z,9.32
2023-04-10T04:33:19.202Z,9.77
2023-04-10T04:36:01.010Z,10.30
2023-04-10T04:38:55.767Z,9.60
2023-04-10T04:41:41.860Z,9.35
2023-04-10T04:44:28.153Z,9.57
2023-04-10T04:47:09.608Z,9.60
2023-04-10T04:50:05.432Z,9.32
2023-04-10T04:52:52.535Z,8.73
2023-04-10T04:55:30.576Z,9.10
2023-04-10T04:58:25.258Z,9.07
2023-04-10T05:01:12.836Z,9.60
2023-04-10T05:04:00.193Z,9.07
2023-04-10T05:06:37.250Z,9.52
2023-04-10T05:09:17.800Z,10.18
2023-04-10T05:12:11.439Z,8.23
2023-04-10T05:15:01.677Z,8.77
2023-04-10T05:17:38.874Z,10.18
2023-04-10T05:20:27.304Z,8.27
2023-04-10T05:23:24.468Z,9.65
2023-04-10T05:26:21.181Z,8.88
2023-04-10T05:28:53.911Z,10.32
2023-04-10T05:31:53.426Z,10.10
2023-04-10T05:34:59.503Z,9.85
2023-04-10T05:40:34.467Z,9.32
2023-04-10T05:43:22.186Z,9.77
2023-04-10T05:46:09.113Z,10.02
2023-04-10T05:49:02.382Z,10.15
2023-04-10T05:51:53.540Z,8.55
2023-04-10T05:54:43.715Z,10.63
2023-04-10T05:57:11.063Z,9.70
2023-04-10T05:59:57.134Z,10.82
2023-04-10T06:02:25.858Z,10.13
2023-04-10T06:04:53.919Z,10.27
2023-04-10T06:07:22.521Z,10.70
2023-04-10T06:09:51.464Z,9.25
2023-04-10T06:12:19.121Z,9.85
2023-04-10T06:14:48.527Z,7.90
2023-04-10T06:17:25.869Z,9.35
2023-04-10T06:19:53.947Z,9.68
2023-04-10T06:22:21.387Z,9.00
2023-04-10T06:24:49.230Z,9.98
2023-04-10T06:27:18.628Z,7.95
2023-04-10T06:29:48.283Z,10.30
2023-04-10T06:32:21.053Z,9.95
2023-04-10T06:34:49.875Z,10.77
2023-04-10T06:37:19.134Z,11.15
2023-04-10T06:39:46.932Z,9.43
2023-04-10T06:42:16.688Z,9.75
2023-04-10T06:44:56.774Z,10.38
2023-04-10T06:47:25.664Z,10.82
2023-04-10T06:49:53.663Z,11.25
2023-04-10T06:52:21.494Z,9.30
2023-04-10T06:54:49.004Z,11.20
2023-04-10T06:57:16.927Z,12.52
2023-04-10T06:59:44.875Z,9.57
2023-04-10T07:02:12.785Z,10.57
2023-04-10T07:04:43.976Z,10.80
2023-04-10T07:07:13.306Z,10.25
2023-04-10T07:09:41.281Z,10.30
2023-04-10T07:12:08.831Z,12.88
2023-04-10T07:14:36.186Z,11.02
2023-04-10T07:17:03.641Z,9.95
2023-04-10T07:19:32.232Z,10.18
2023-04-10T07:22:06.561Z,10.50
2023-04-10T07:24:33.812Z,10.20
2023-04-10T07:27:02.366Z,9.57
2023-04-10T07:29:33.463Z,10.63
2023-04-10T07:32:01.098Z,9.65
2023-04-10T07:34:28.522Z,11.15
2023-04-10T07:36:57.034Z,10.95
2023-04-10T07:39:24.558Z,10.00
2023-04-10T07:41:56.233Z,9.82
2023-04-10T07:44:23.615Z,9.65
2023-04-10T07:46:52.352Z,10.00
2023-04-10T07:49:19.753Z,9.98
2023-04-10T07:51:47.379Z,9.57
2023-04-10T07:54:14.741Z,8.52
2023-04-10T07:56:44.954Z,9.82
2023-04-10T07:59:16.246Z,8.10
2023-04-10T08:01:45.146Z,9.75
2023-04-10T08:04:12.870Z,10.32
2023-04-10T08:06:41.622Z,9.18
2023-04-10T08:09:09.382Z,9.10
2023-04-10T08:11:38.703Z,10.65
2023-04-10T08:14:07.263Z,10.25
2023-04-10T08:16:36.644Z,9.95
2023-04-10T08:19:04.574Z,9.02
2023-04-10T08:21:33.490Z,9.52
2023-04-10T08:24:06.205Z,9.32
2023-04-10T08:26:34.658Z,8.38
2023-04-10T08:29:02.842Z,8.50
2023-04-10T08:31:30.564Z,8.05
2023-04-10T08:34:00.814Z,9.77
2023-04-10T08:36:29.609Z,8.57
2023-04-10T08:38:57.200Z,9.63
2023-04-10T08:41:24.545Z,7.78
2023-04-10T08:43:52.106Z,8.38
2023-04-10T08:46:26.688Z,8.52
2023-04-10T08:49:05.857Z,8.25
2023-04-10T08:51:58.762Z,8.93
2023-04-10T08:54:36.396Z,8.13
2023-04-10T08:57:08.105Z,8.88
2023-04-10T08:59:37.747Z,9.13
2023-04-10T09:02:07.040Z,8.20
2023-04-10T09:04:34.827Z,8.25
2023-04-10T09:07:03.698Z,8.57
2023-04-10T09:09:36.588Z,9.27
2023-04-10T09:12:04.552Z,8.50
2023-04-10T09:14:35.178Z,9.40
2023-04-10T09:17:23.948Z,8.35
2023-04-10T09:19:55.517Z,8.93
2023-04-10T09:22:36.334Z,10.15
2023-04-10T09:25:05.625Z,8.18
2023-04-10T09:27:37.536Z,9.35
2023-04-10T09:30:08.374Z,8.80
2023-04-10T09:32:47.815Z,8.45
2023-04-10T09:35:16.691Z,8.00
2023-04-10T09:37:47.232Z,7.82
2023-04-10T09:40:25.894Z,9.50
2023-04-10T09:42:56.115Z,9.35
2023-04-10T09:45:23.586Z,9.45
2023-04-10T09:48:09.209Z,8.85
2023-04-10T09:50:41.937Z,9.10
2023-04-10T09:53:21.782Z,8.23
2023-04-10T09:55:50.581Z,8.27
2023-04-10T09:58:19.272Z,8.88
2023-04-10T10:00:49.834Z,8.13
2023-04-10T10:03:23.019Z,8.73
2023-04-10T10:05:52.627Z,9.82
2023-04-10T10:08:27.372Z,8.85
2023-04-10T10:10:59.126Z,7.88
2023-04-10T10:13:49.632Z,8.20
2023-04-10T10:16:41.671Z,7.75
2023-04-10T10:20:23.213Z,8.13
2023-04-10T10:22:52.140Z,7.30
2023-04-10T10:25:21.455Z,8.00
2023-04-10T10:27:57.985Z,7.85
2023-04-10T10:33:00.844Z,8.82
2023-04-10T10:35:31.204Z,8.95
2023-04-10T10:38:01.325Z,9.23
2023-04-10T10:40:59.256Z,9.05
2023-04-10T10:44:11.573Z,9.07
2023-04-10T10:47:10.054Z,9.77
2023-04-10T10:50:03.854Z,10.05
2023-04-10T10:52:57.384Z,9.13
2023-04-10T10:55:28.773Z,8.55
2023-04-10T10:58:10.338Z,7.53
2023-04-10T11:00:52.994Z,6.60
2023-04-10T11:03:20.688Z,6.85
2023-04-10T11:06:04.592Z,6.97
2023-04-10T11:08:50.197Z,6.53
2023-04-10T11:11:27.576Z,7.07
2023-04-10T11:14:17.772Z,7.00
2023-04-10T11:16:50.886Z,7.05
2023-04-10T11:19:23.387Z,5.55
2023-04-10T11:22:20.995Z,5.85
2023-04-10T11:25:02.496Z,5.63
2023-04-10T11:27:45.116Z,5.07
2023-04-10T11:30:35.394Z,5.55
2023-04-10T11:33:05.956Z,5.90
2023-04-10T11:35:34.309Z,6.85
2023-04-10T11:38:18.992Z,5.47
2023-04-10T11:41:08.789Z,5.25
2023-04-10T11:43:36.258Z,5.63
2023-04-10T11:46:08.195Z,5.25
2023-04-10T11:48:39.120Z,6.05
2023-04-10T11:51:15.133Z,5.90
2023-04-10T11:53:45.035Z,6.30
2023-04-10T11:56:22.035Z,6.85
2023-04-10T11:58:54.702Z,8.30
2023-04-10T12:01:26.533Z,6.57
2023-04-10T12:03:54.832Z,5.25
2023-04-10T12:06:22.829Z,5.53
2023-04-10T12:08:51.467Z,6.57
2023-04-10T12:11:28.773Z,4.82
2023-04-10T12:14:00.132Z,5.22
2023-04-10T12:16:27.729Z,5.75
2023-04-10T12:19:04.340Z,5.78
2023-04-10T12:21:37.583Z,5.55
2023-04-10T12:24:06.480Z,4.95
2023-04-10T12:26:35.468Z,4.72
2023-04-10T12:29:04.001Z,5.75
2023-04-10T12:31:36.397Z,4.80
2023-04-10T12:34:05.671Z,5.22
2023-04-10T12:36:35.207Z,5.10
2023-04-10T12:39:05.834Z,4.82
2023-04-10T12:41:35.636Z,4.53
2023-04-10T12:44:17.662Z,4.43
2023-04-10T12:46:46.885Z,4.97
2023-04-10T12:49:21.985Z,4.63
2023-04-10T12:51:53.168Z,4.30
2023-04-10T12:54:37.015Z,4.53
2023-04-10T12:57:07.669Z,5.43
2023-04-10T12:59:35.034Z,4.07
2023-04-10T13:02:29.700Z,3.53
2023-04-10T13:05:00.138Z,4.65
2023-04-10T13:07:28.919Z,4.40
2023-04-10T13:10:00.055Z,5.43
2023-04-10T13:12:28.955Z,4.97
2023-04-10T13:14:59.866Z,5.05
2023-04-10T13:17:28.320Z,5.32
2023-04-10T13:19:58.569Z,4.47
2023-04-10T13:22:25.994Z,5.13
2023-04-10T13:24:53.559Z,5.40
2023-04-10T13:27:22.873Z,4.85
2023-04-10T13:29:50.367Z,5.30
2023-04-10T13:32:19.150Z,4.38
2023-04-10T13:35:01.119Z,4.47
2023-04-10T13:37:30.881Z,4.13
2023-04-10T13:40:00.676Z,5.43
2023-04-10T13:42:30.691Z,4.82
2023-04-10T13:45:01.654Z,4.57
2023-04-10T13:47:32.273Z,4.00
2023-04-10T13:50:01.105Z,4.20
2023-04-10T13:52:28.593Z,4.70
2023-04-10T13:54:55.937Z,4.72
2023-04-10T13:57:23.220Z,4.45
2023-04-10T13:59:50.693Z,4.55
2023-04-10T14:02:20.290Z,4.22
2023-04-10T14:04:51.268Z,5.10
2023-04-10T14:07:20.092Z,4.68
2023-04-10T14:09:48.839Z,3.67
2023-04-10T14:12:16.417Z,4.53
2023-04-10T14:14:46.170Z,3.72
2023-04-10T14:17:14.623Z,4.05
2023-04-10T14:19:43.227Z,4.25
2023-04-10T14:22:13.281Z,5.18
2023-04-10T14:24:42.488Z,4.55
2023-04-10T14:27:13.322Z,4.80
2023-04-10T14:29:50.889Z,4.40
2023-04-10T14:32:23.053Z,4.60
2023-04-10T14:34:50.529Z,4.63
2023-04-10T14:37:19.151Z,4.40
2023-04-10T14:39:46.726Z,3.92
2023-04-10T14:42:14.051Z,4.53
2023-04-10T14:44:45.056Z,4.50
2023-04-10T14:47:12.388Z,4.22
2023-04-10T14:49:40.592Z,4.65
2023-04-10T14:52:08.576Z,4.22
2023-04-10T14:54:35.946Z,4.57
2023-04-10T14:57:04.890Z,4.30
2023-04-10T14:59:32.199Z,3.80
2023-04-10T15:02:00.726Z,4.60
2023-04-10T15:04:28.429Z,4.30
2023-04-10T15:06:55.900Z,4.43
2023-04-10T15:09:23.363Z,5.25
2023-04-10T15:11:51.163Z,4.53
2023-04-10T15:14:18.406Z,4.93
2023-04-10T15:16:47.359Z,3.88
2023-04-10T15:19:14.705Z,4.13
2023-04-10T15:21:42.688Z,4.28
2023-04-10T15:24:10.221Z,4.68
2023-04-10T15:26:43.169Z,4.00
2023-04-10T15:29:13.239Z,3.75
2023-04-10T15:31:41.564Z,3.50
2023-04-10T15:34:10.205Z,3.90
2023-04-10T15:36:37.633Z,4.05
2023-04-10T15:39:05.181Z,4.30
2023-04-10T15:41:33.144Z,3.45
2023-04-10T15:44:00.575Z,4.25
2023-04-10T15:46:32.401Z,4.25
2023-04-10T15:49:00.928Z,4.03
2023-04-10T15:51:28.262Z,4.32
2023-04-10T15:53:56.217Z,5.03
2023-04-10T15:56:25.382Z,3.85
2023-04-10T15:58:53.228Z,4.10
2023-04-10T16:01:20.835Z,3.30
2023-04-10T16:03:49.384Z,3.70
2023-04-10T16:06:18.232Z,4.05
2023-04-10T16:08:45.612Z,4.43
2023-04-10T16:11:12.817Z,3.50
2023-04-10T16:13:42.905Z,4.40
2023-04-10T16:16:18.149Z,4.10
2023-04-10T16:18:47.225Z,4.60
2023-04-10T16:21:14.933Z,3.13
2023-04-10T16:23:43.503Z,3.78
2023-04-10T16:26:12.333Z,3.55
2023-04-10T16:28:39.607Z,3.30
2023-04-10T16:31:07.129Z,4.15
2023-04-10T16:33:34.469Z,3.90
2023-04-10T16:36:04.754Z,3.10
2023-04-10T16:38:35.777Z,4.05
2023-04-10T16:41:07.740Z,4.88
2023-04-10T16:43:35.844Z,4.43
2023-04-10T16:46:03.406Z,4.78
2023-04-10T16:48:30.844Z,4.35
2023-04-10T16:51:05.231Z,4.50
2023-04-10T16:53:36.411Z,4.95
2023-04-10T16:56:05.071Z,6.15
2023-04-10T16:58:36.796Z,5.75
2023-04-10T17:01:26.127Z,6.03
2023-04-10T17:03:54.976Z,8.07
2023-04-10T17:06:22.425Z,8.15
2023-04-10T17:08:49.737Z,8.60
2023-04-10T17:11:17.745Z,8.40
2023-04-10T17:13:46.658Z,9.45
2023-04-10T17:16:15.639Z,8.80
2023-04-10T17:18:44.031Z,8.50
2023-04-10T17:21:13.757Z,9.02
2023-04-10T17:23:41.642Z,8.82
2023-04-10T17:26:16.630Z,9.45
2023-04-10T17:28:47.672Z,9.05
2023-04-10T17:31:19.694Z,10.57
2023-04-10T17:33:47.072Z,8.93
2023-04-10T17:36:15.328Z,9.18
2023-04-10T17:38:43.422Z,8.48
2023-04-10T17:41:14.499Z,9.25
2023-04-10T17:43:41.985Z,10.02
2023-04-10T17:46:15.657Z,8.13
2023-04-10T17:48:46.166Z,9.50
2023-04-10T17:51:14.478Z,8.93
2023-04-10T17:53:41.904Z,10.20
2023-04-10T17:56:19.992Z,8.88
2023-04-10T17:58:48.842Z,9.07
2023-04-10T18:01:30.979Z,10.13
2023-04-10T18:03:59.338Z,10.02
2023-04-10T18:06:27.583Z,8.90
2023-04-10T18:08:57.378Z,8.70
2023-04-10T18:11:25.408Z,10.10
2023-04-10T18:13:52.668Z,8.55
2023-04-10T18:16:20.230Z,7.97
2023-04-10T18:18:47.807Z,9.30
2023-04-10T18:21:17.006Z,9.07
2023-04-10T18:23:44.652Z,10.23
2023-04-10T18:26:13.200Z,8.43
2023-04-10T18:28:42.124Z,8.60
2023-04-10T18:31:09.726Z,7.93
2023-04-10T18:33:37.520Z,9.43
2023-04-10T18:36:05.330Z,8.50
2023-04-10T18:38:34.781Z,9.63
2023-04-10T18:41:02.180Z,8.52
2023-04-10T18:43:29.550Z,7.75
2023-04-10T18:45:57.445Z,6.97
2023-04-10T18:48:24.827Z,7.80
2023-04-10T18:50:54.481Z,7.22
2023-04-10T18:53:22.683Z,5.82
2023-04-10T18:55:54.697Z,7.25
2023-04-10T18:58:22.995Z,7.20
2023-04-10T19:00:50.473Z,6.32
2023-04-10T19:03:18.798Z,7.30
2023-04-10T19:05:47.930Z,5.30
2023-04-10T19:08:18.092Z,5.85
2023-04-10T19:10:45.396Z,5.90
2023-04-10T19:13:13.412Z,4.78
2023-04-10T19:15:43.373Z,4.47
2023-04-10T19:18:12.380Z,4.25
2023-04-10T19:20:49.944Z,3.40
2023-04-10T19:23:18.845Z,4.75
2023-04-10T19:25:53.483Z,4.15
2023-04-10T19:28:20.976Z,3.30
2023-04-10T19:30:50.573Z,3.35
2023-04-10T19:33:20.103Z,3.22
2023-04-10T19:35:49.449Z,3.47
2023-04-10T19:38:17.867Z,4.28
2023-04-10T19:40:47.172Z,3.83
2023-04-10T19:43:14.552Z,3.53
2023-04-10T19:45:42.095Z,3.00
2023-04-10T19:48:09.758Z,3.08
2023-04-10T19:50:37.143Z,3.60
2023-04-10T19:53:04.800Z,3.97
2023-04-10T19:55:32.235Z,3.17
2023-04-10T19:57:59.567Z,3.83
2023-04-10T20:00:27.335Z,3.30
2023-04-10T20:02:54.978Z,3.50
2023-04-10T20:05:22.467Z,3.47
2023-04-10T20:07:50.393Z,3.55
2023-04-10T20:10:17.775Z,3.15
2023-04-10T20:12:45.087Z,3.80
2023-04-10T20:15:12.626Z,3.75
2023-04-10T20:17:40.025Z,2.97
2023-04-10T20:20:08.356Z,3.40
2023-04-10T20:22:35.656Z,3.58
2023-04-10T20:25:03.072Z,3.70
2023-04-10T20:27:30.410Z,3.47
2023-04-10T20:29:57.698Z,3.55
2023-04-10T20:32:25.094Z,3.50
2023-04-10T20:34:52.371Z,3.30
2023-04-10T20:37:21.982Z,3.80
2023-04-10T20:39:50.779Z,3.72
2023-04-10T20:42:18.130Z,4.97
2023-04-10T20:44:45.415Z,3.88
2023-04-10T20:47:13.612Z,4.05
2023-04-10T20:49:41.100Z,3.53
2023-04-10T20:52:08.370Z,4.55
2023-04-10T20:54:36.102Z,4.00
2023-04-10T20:57:05.842Z,3.40
2023-04-10T20:59:33.690Z,4.22
2023-04-10T21:02:02.379Z,5.40
2023-04-10T21:04:29.897Z,3.90
2023-04-10T21:06:57.534Z,4.25
2023-04-10T21:09:25.355Z,4.40
2023-04-10T21:11:52.564Z,5.03
2023-04-10T21:14:19.879Z,5.13
2023-04-10T21:16:47.260Z,4.63
2023-04-10T21:19:14.501Z,4.10
2023-04-10T21:21:41.903Z,4.50
2023-04-10T21:24:09.256Z,4.63
2023-04-10T21:26:36.628Z,4.80
2023-04-10T21:29:03.937Z,6.63
2023-04-10T21:31:31.571Z,4.10
2023-04-10T21:33:58.860Z,4.45
2023-04-10T21:36:26.778Z,6.63
2023-04-10T21:38:54.215Z,5.57
2023-04-10T21:41:21.763Z,6.53
2023-04-10T21:43:49.203Z,6.07
2023-04-10T21:46:16.565Z,6.38
2023-04-10T21:48:43.957Z,5.60
2023-04-10T21:51:11.406Z,6.43
2023-04-10T21:53:38.761Z,6.85
2023-04-10T21:56:07.981Z,6.18
2023-04-10T21:58:35.297Z,5.53
2023-04-10T22:01:02.593Z,5.53
2023-04-10T22:03:30.578Z,4.93
2023-04-10T22:05:57.927Z,4.75
2023-04-10T22:08:25.250Z,5.80
2023-04-10T22:10:52.629Z,5.82
2023-04-10T22:13:30.456Z,5.63
2023-04-10T22:16:02.183Z,4.88
2023-04-10T22:18:31.388Z,5.70
2023-04-10T22:20:59.048Z,5.43
2023-04-10T22:23:26.714Z,5.03
2023-04-10T22:25:53.960Z,6.35
2023-04-10T22:28:21.202Z,6.63
2023-04-10T22:30:48.553Z,5.60
2023-04-10T22:33:15.873Z,6.05
2023-04-10T22:35:43.233Z,4.70
2023-04-10T22:38:10.730Z,5.57
2023-04-10T22:40:38.004Z,6.43
2023-04-10T22:43:05.268Z,6.57
2023-04-10T22:45:32.476Z,7.93
2023-04-10T22:47:59.910Z,6.75
2023-04-10T22:50:27.244Z,5.90
2023-04-10T22:52:56.212Z,6.38
2023-04-10T22:55:23.551Z,7.60
2023-04-10T22:57:51.154Z,6.68
2023-04-10T23:00:18.716Z,6.95
2023-04-10T23:02:46.201Z,7.43
2023-04-10T23:05:14.122Z,9.60
2023-04-10T23:07:41.369Z,7.10
2023-04-10T23:10:09.331Z,6.10
2023-04-10T23:12:37.745Z,7.03
2023-04-10T23:15:07.973Z,6.43
2023-04-10T23:17:35.317Z,7.03
2023-04-10T23:20:02.959Z,8.18
2023-04-10T23:22:30.435Z,7.30
2023-04-10T23:24:58.099Z,7.55
2023-04-10T23:27:25.313Z,6.35
2023-04-10T23:29:52.578Z,7.13
2023-04-10T23:32:19.889Z,6.15
2023-04-10T23:34:47.137Z,6.32
2023-04-10T23:37:14.406Z,8.10
2023-04-10T23:39:41.568Z,6.15
2023-04-10T23:42:09.354Z,7.03
2023-04-10T23:44:36.604Z,7.68
2023-04-10T23:47:04.290Z,7.20
2023-04-10T23:49:31.624Z,8.18
2023-04-10T23:51:59.194Z,8.40
2023-04-10T23:54:26.748Z,8.13
2023-04-10T23:56:54.062Z,9.00
2023-04-10T23:59:23.760Z,7.97
